createdAt,value
2022-09-17T00:01:40.163Z,9.20
2022-09-17T00:04:07.355Z,9.10
2022-09-17T00:06:36.014Z,8.50
2022-09-17T00:09:05.995Z,9.30
2022-09-17T00:11:35.547Z,8.10
2022-09-17T00:14:04.633Z,9.30
2022-09-17T00:16:35.254Z,9.40
2022-09-17T00:19:03.506Z,8.90
2022-09-17T00:21:30.492Z,8.10
2022-09-17T00:23:59.785Z,9.50
2022-09-17T00:26:27.452Z,8.90
2022-09-17T00:28:55.676Z,9.70
2022-09-17T00:31:23.879Z,9.50
2022-09-17T00:33:51.578Z,9.50
2022-09-17T00:36:20.557Z,9.60
2022-09-17T00:38:51.934Z,7.90
2022-09-17T00:41:19.870Z,9.40
2022-09-17T00:43:46.735Z,9.30
2022-09-17T00:46:22.661Z,9.70
2022-09-17T00:48:50.287Z,7.80
2022-09-17T00:51:23.070Z,8.30
2022-09-17T00:53:50.099Z,9.70
2022-09-17T00:56:23.876Z,9.20
2022-09-17T00:58:55.443Z,9.50
2022-09-17T01:01:22.706Z,8.20
2022-09-17T01:03:50.626Z,9.30
2022-09-17T01:06:36.318Z,8.90
2022-09-17T01:09:27.019Z,9.20
2022-09-17T01:12:09.012Z,7.60
2022-09-17T01:14:40.164Z,7.60
2022-09-17T01:17:33.103Z,7.60
2022-09-17T01:20:20.776Z,7.60
2022-09-17T01:23:09.375Z,7.60
2022-09-17T01:25:39.357Z,9.10
2022-09-17T01:28:30.078Z,7.60
2022-09-17T01:31:18.949Z,7.70
2022-09-17T01:34:01.629Z,7.60
2022-09-17T01:36:45.218Z,9.40
2022-09-17T01:39:24.715Z,7.50
2022-09-17T01:42:00.305Z,7.50
2022-09-17T01:45:10.062Z,9.80
2022-09-17T01:47:43.876Z,7.50
2022-09-17T01:50:20.015Z,7.50
2022-09-17T01:52:50.106Z,10.50
2022-09-17T01:55:19.764Z,10.00
2022-09-17T01:58:07.317Z,10.20
2022-09-17T02:00:35.482Z,10.00
2022-09-17T02:03:30.532Z,10.10
2022-09-17T02:06:07.074Z,9.00
2022-09-17T02:08:56.490Z,9.30
2022-09-17T02:11:23.529Z,7.40
2022-09-17T02:13:59.303Z,10.10
2022-09-17T02:16:35.792Z,7.40
2022-09-17T02:19:31.600Z,7.50
2022-09-17T02:22:19.353Z,9.40
2022-09-17T02:24:58.381Z,7.50
2022-09-17T02:27:39.557Z,7.50
2022-09-17T02:30:07.067Z,7.50
2022-09-17T02:32:34.159Z,7.50
2022-09-17T02:35:01.245Z,9.50
2022-09-17T02:37:28.136Z,10.60
2022-09-17T02:39:55.483Z,10.50
2022-09-17T02:42:27.939Z,10.20
2022-09-17T02:45:07.237Z,7.50
2022-09-17T02:47:40.229Z,7.50
2022-09-17T02:50:17.098Z,10.20
2022-09-17T02:53:04.727Z,7.50
2022-09-17T02:55:47.989Z,7.50
2022-09-17T02:58:31.302Z,9.00
2022-09-17T03:01:04.650Z,7.50
2022-09-17T03:03:37.975Z,9.40
2022-09-17T03:06:06.052Z,10.40
2022-09-17T03:08:37.268Z,7.60
2022-09-17T03:11:06.202Z,10.00
2022-09-17T03:13:33.321Z,9.70
2022-09-17T03:16:00.286Z,7.60
2022-09-17T03:18:27.318Z,10.20
2022-09-17T03:20:54.327Z,10.10
2022-09-17T03:23:21.432Z,8.80
2022-09-17T03:25:49.793Z,10.50
2022-09-17T03:28:17.259Z,9.30
2022-09-17T03:30:45.284Z,10.40
2022-09-17T03:33:12.481Z,10.60
2022-09-17T03:38:22.969Z,7.90
2022-09-17T03:41:04.262Z,10.00
2022-09-17T03:43:31.265Z,9.80
2022-09-17T03:45:58.172Z,9.80
2022-09-17T03:48:25.069Z,10.40
2022-09-17T03:50:52.040Z,10.30
2022-09-17T03:53:19.121Z,9.80
2022-09-17T03:55:46.067Z,10.60
2022-09-17T03:58:13.003Z,10.80
2022-09-17T04:00:40.176Z,10.40
2022-09-17T04:03:07.389Z,10.20
2022-09-17T04:05:34.335Z,9.70
2022-09-17T04:08:01.886Z,9.40
2022-09-17T04:10:29.407Z,7.60
2022-09-17T04:12:56.531Z,9.60
2022-09-17T04:15:23.492Z,9.40
2022-09-17T04:17:50.437Z,9.50
2022-09-17T04:20:17.590Z,10.60
2022-09-17T04:22:44.502Z,7.60
2022-09-17T04:25:11.643Z,10.70
2022-09-17T04:27:38.619Z,10.30
2022-09-17T04:30:06.362Z,10.60
2022-09-17T04:32:33.374Z,7.60
2022-09-17T04:35:05.369Z,7.60
2022-09-17T04:37:32.597Z,7.50
2022-09-17T04:39:59.654Z,8.70
2022-09-17T04:42:26.500Z,8.50
2022-09-17T04:44:53.375Z,9.30
2022-09-17T04:47:20.219Z,8.90
2022-09-17T04:49:47.072Z,8.60
2022-09-17T04:52:14.076Z,9.50
2022-09-17T04:54:41.142Z,9.20
2022-09-17T04:57:08.087Z,10.50
2022-09-17T04:59:35.019Z,9.10
2022-09-17T05:02:01.942Z,10.10
2022-09-17T05:04:29.007Z,9.10
2022-09-17T05:06:55.910Z,8.00
2022-09-17T05:09:22.860Z,10.50
2022-09-17T05:11:49.770Z,10.20
2022-09-17T05:14:16.765Z,9.40
2022-09-17T05:16:43.693Z,9.00
2022-09-17T05:19:10.636Z,9.20
2022-09-17T05:21:37.590Z,10.10
2022-09-17T05:24:04.721Z,10.30
2022-09-17T05:26:31.668Z,7.50
2022-09-17T05:28:58.846Z,10.60
2022-09-17T05:31:26.082Z,10.40
2022-09-17T05:33:53.059Z,10.60
2022-09-17T05:36:19.927Z,9.50
2022-09-17T05:38:46.935Z,9.50
2022-09-17T05:41:13.901Z,7.80
2022-09-17T05:43:42.676Z,9.70
2022-09-17T05:46:09.702Z,10.30
2022-09-17T05:48:36.889Z,10.10
2022-09-17T05:51:03.934Z,10.10
2022-09-17T05:53:30.851Z,7.40
2022-09-17T05:55:59.024Z,9.20
2022-09-17T05:58:27.171Z,9.20
2022-09-17T06:00:54.174Z,10.10
2022-09-17T06:03:22.931Z,7.40
2022-09-17T06:06:00.438Z,10.40
2022-09-17T06:08:28.726Z,9.90
2022-09-17T06:11:00.145Z,10.10
2022-09-17T06:13:29.080Z,10.00
2022-09-17T06:15:55.947Z,9.50
2022-09-17T06:18:22.899Z,9.30
2022-09-17T06:20:58.095Z,7.40
2022-09-17T06:23:25.692Z,9.50
2022-09-17T06:25:57.617Z,9.50
2022-09-17T06:28:25.803Z,9.60
2022-09-17T06:30:54.541Z,8.40
2022-09-17T06:33:22.116Z,9.80
2022-09-17T06:35:49.735Z,9.30
2022-09-17T06:38:16.612Z,9.70
2022-09-17T06:40:43.498Z,9.50
2022-09-17T06:43:10.479Z,9.60
2022-09-17T06:45:37.594Z,8.90
2022-09-17T06:48:05.403Z,9.60
2022-09-17T06:50:32.311Z,7.30
2022-09-17T06:52:59.163Z,8.50
2022-09-17T06:55:26.331Z,9.70
2022-09-17T06:57:53.217Z,9.80
2022-09-17T07:00:20.230Z,10.00
2022-09-17T07:02:57.829Z,7.30
2022-09-17T07:05:26.040Z,10.20
2022-09-17T07:07:53.705Z,8.80
2022-09-17T07:10:23.288Z,8.90
2022-09-17T07:12:50.239Z,10.10
2022-09-17T07:15:17.399Z,9.10
2022-09-17T07:17:47.132Z,8.70
2022-09-17T07:20:13.947Z,9.60
2022-09-17T07:22:40.918Z,8.80
2022-09-17T07:25:08.395Z,8.40
2022-09-17T07:27:35.501Z,7.30
2022-09-17T07:30:02.584Z,9.50
2022-09-17T07:32:31.354Z,7.30
2022-09-17T07:34:58.367Z,9.70
2022-09-17T07:37:25.313Z,7.90
2022-09-17T07:39:52.436Z,9.80
2022-09-17T07:42:19.390Z,9.10
2022-09-17T07:44:46.961Z,8.30
2022-09-17T07:47:13.928Z,9.80
2022-09-17T07:49:40.912Z,9.60
2022-09-17T07:52:07.823Z,9.10
2022-09-17T07:54:37.024Z,10.00
2022-09-17T07:57:04.402Z,9.90
2022-09-17T07:59:31.532Z,7.40
2022-09-17T08:01:58.623Z,9.30
2022-09-17T08:04:32.924Z,9.20
2022-09-17T08:07:00.305Z,9.20
2022-09-17T08:09:27.227Z,9.50
2022-09-17T08:11:56.467Z,8.70
2022-09-17T08:14:29.134Z,10.20
2022-09-17T08:16:56.198Z,9.50
2022-09-17T08:19:23.181Z,9.50
2022-09-17T08:21:50.111Z,9.60
2022-09-17T08:24:17.266Z,9.70
2022-09-17T08:26:44.261Z,10.40
2022-09-17T08:29:11.404Z,10.10
2022-09-17T08:31:38.398Z,10.00
2022-09-17T08:34:09.718Z,9.40
2022-09-17T08:36:37.075Z,8.20
2022-09-17T08:39:04.403Z,9.20
2022-09-17T08:42:03.520Z,9.40
2022-09-17T08:44:42.710Z,8.00
2022-09-17T08:47:18.881Z,10.10
2022-09-17T08:50:03.621Z,10.20
2022-09-17T08:52:36.550Z,8.00
2022-09-17T08:55:25.852Z,8.00
2022-09-17T08:58:50.204Z,10.40
2022-09-17T09:01:36.152Z,7.90
2022-09-17T09:04:28.351Z,8.00
2022-09-17T09:07:04.570Z,8.00
2022-09-17T09:09:38.198Z,8.30
2022-09-17T09:12:12.161Z,9.50
2022-09-17T09:14:54.400Z,10.20
2022-09-17T09:17:23.701Z,10.20
2022-09-17T09:19:53.117Z,9.60
2022-09-17T09:22:43.292Z,8.40
2022-09-17T09:25:29.728Z,8.40
2022-09-17T09:28:22.574Z,8.30
2022-09-17T09:30:55.506Z,8.30
2022-09-17T09:33:30.769Z,8.20
2022-09-17T09:35:58.911Z,10.90
2022-09-17T09:38:54.020Z,11.20
2022-09-17T09:41:25.782Z,8.30
2022-09-17T09:44:05.568Z,8.40
2022-09-17T09:46:44.797Z,8.40
2022-09-17T09:49:20.553Z,8.40
2022-09-17T09:52:18.338Z,8.40
2022-09-17T09:55:12.835Z,8.40
2022-09-17T09:58:36.506Z,8.40
2022-09-17T10:01:12.507Z,8.40
2022-09-17T10:03:44.014Z,8.50
2022-09-17T10:06:12.010Z,10.40
2022-09-17T10:08:41.349Z,9.80
2022-09-17T10:11:14.216Z,9.70
2022-09-17T10:13:41.273Z,10.10
2022-09-17T10:16:24.896Z,9.90
2022-09-17T10:19:14.472Z,10.60
2022-09-17T10:21:42.998Z,10.60
2022-09-17T10:24:36.679Z,11.30
2022-09-17T10:27:13.431Z,10.30
2022-09-17T10:29:49.249Z,11.30
2022-09-17T10:32:21.741Z,11.60
2022-09-17T10:35:18.497Z,9.70
2022-09-17T10:37:47.072Z,10.40
2022-09-17T10:40:20.180Z,9.80
2022-09-17T10:42:49.166Z,11.30
2022-09-17T10:45:30.311Z,10.90
2022-09-17T10:47:59.547Z,11.00
2022-09-17T10:50:31.951Z,11.50
2022-09-17T10:53:02.996Z,11.60
2022-09-17T10:55:38.906Z,12.00
2022-09-17T10:58:08.790Z,10.30
2022-09-17T11:01:06.453Z,11.30
2022-09-17T11:03:44.039Z,10.40
2022-09-17T11:06:50.865Z,11.90
2022-09-17T11:09:29.776Z,10.50
2022-09-17T11:12:17.893Z,10.60
2022-09-17T11:14:53.841Z,10.60
2022-09-17T11:17:51.678Z,10.70
2022-09-17T11:20:42.750Z,10.70
2022-09-17T11:23:34.894Z,10.70
2022-09-17T11:26:09.237Z,10.70
2022-09-17T11:29:06.856Z,10.90
2022-09-17T11:31:54.439Z,11.10
2022-09-17T11:34:28.281Z,11.50
2022-09-17T11:37:23.752Z,12.30
2022-09-17T11:39:57.400Z,12.20
2022-09-17T11:42:48.514Z,12.50
2022-09-17T11:45:20.959Z,12.70
2022-09-17T11:52:24.611Z,13.20
2022-09-17T11:54:51.600Z,13.40
2022-09-17T11:57:21.830Z,13.50
2022-09-17T12:00:16.334Z,13.60
2022-09-17T12:02:46.745Z,13.50
2022-09-17T12:05:22.613Z,13.20
2022-09-17T12:08:15.149Z,13.20
2022-09-17T12:11:13.214Z,13.00
2022-09-17T12:13:57.034Z,12.90
2022-09-17T12:16:45.462Z,12.60
2022-09-17T12:19:37.634Z,12.50
2022-09-17T12:22:15.820Z,12.40
2022-09-17T12:24:43.238Z,12.50
2022-09-17T12:27:16.970Z,12.20
2022-09-17T12:30:06.913Z,12.50
2022-09-17T12:32:51.261Z,12.10
2022-09-17T12:36:05.237Z,11.90
2022-09-17T12:38:44.071Z,11.80
2022-09-17T12:41:20.512Z,11.80
2022-09-17T12:44:06.078Z,11.70
2022-09-17T12:47:04.825Z,11.80
2022-09-17T12:49:47.115Z,11.80
2022-09-17T12:52:32.662Z,11.90
2022-09-17T12:55:31.055Z,11.90
2022-09-17T12:58:22.955Z,12.00
2022-09-17T13:01:02.452Z,11.90
2022-09-17T13:04:05.505Z,11.80
2022-09-17T13:07:00.950Z,11.40
2022-09-17T13:09:49.758Z,10.90
2022-09-17T13:16:40.033Z,10.30
2022-09-17T13:19:32.826Z,11.30
2022-09-17T13:22:10.198Z,10.20
2022-09-17T13:24:37.816Z,11.80
2022-09-17T13:27:06.384Z,10.60
2022-09-17T13:29:58.213Z,12.10
2022-09-17T13:32:34.918Z,10.60
2022-09-17T13:35:13.784Z,12.40
2022-09-17T13:38:00.986Z,10.80
2022-09-17T13:40:33.394Z,10.90
2022-09-17T13:43:27.471Z,10.90
2022-09-17T13:46:00.499Z,11.00
2022-09-17T13:48:34.362Z,11.00
2022-09-17T13:51:57.128Z,11.00
2022-09-17T13:54:36.726Z,11.10
2022-09-17T13:57:11.148Z,11.10
2022-09-17T13:59:38.405Z,11.00
2022-09-17T14:02:14.467Z,11.10
2022-09-17T14:04:41.421Z,11.40
2022-09-17T14:07:23.683Z,11.40
2022-09-17T14:09:57.108Z,11.60
2022-09-17T14:12:41.809Z,11.80
2022-09-17T14:15:33.607Z,11.90
2022-09-17T14:18:03.830Z,12.00
2022-09-17T14:20:34.296Z,11.90
2022-09-17T14:23:02.915Z,12.00
2022-09-17T14:25:38.064Z,12.10
2022-09-17T14:28:35.966Z,12.10
2022-09-17T14:31:08.809Z,12.00
2022-09-17T14:33:49.095Z,12.00
2022-09-17T14:36:20.114Z,12.00
2022-09-17T14:38:50.934Z,12.00
2022-09-17T14:42:17.240Z,11.90
2022-09-17T14:44:58.826Z,11.90
2022-09-17T14:47:37.938Z,11.80
2022-09-17T14:50:25.081Z,11.80
2022-09-17T14:52:54.010Z,11.90
2022-09-17T14:55:24.139Z,12.00
2022-09-17T14:57:54.391Z,12.10
2022-09-17T15:00:24.436Z,12.00
2022-09-17T15:07:12.969Z,11.70
2022-09-17T15:09:39.949Z,11.50
2022-09-17T15:13:14.171Z,11.40
2022-09-17T15:15:50.623Z,11.30
2022-09-17T15:18:52.750Z,11.40
2022-09-17T15:21:43.158Z,11.30
2022-09-17T15:24:39.743Z,11.20
2022-09-17T15:31:24.865Z,11.20
2022-09-17T15:33:51.942Z,11.10
2022-09-17T15:36:21.431Z,11.10
2022-09-17T15:38:49.245Z,11.10
2022-09-17T15:41:22.669Z,11.10
2022-09-17T15:43:50.720Z,11.00
2022-09-17T15:46:29.568Z,11.00
2022-09-17T15:49:02.312Z,10.90
2022-09-17T15:51:31.793Z,11.00
2022-09-17T15:54:05.131Z,10.90
2022-09-17T15:56:41.249Z,11.00
2022-09-17T15:59:27.962Z,11.00
2022-09-17T16:01:57.155Z,11.00
2022-09-17T16:09:33.109Z,11.10
2022-09-17T16:12:00.327Z,11.10
2022-09-17T16:14:27.387Z,11.10
2022-09-17T16:16:56.334Z,11.10
2022-09-17T16:19:23.411Z,11.10
2022-09-17T16:21:50.525Z,11.10
2022-09-17T16:24:17.564Z,11.00
2022-09-17T16:26:44.762Z,11.00
2022-09-17T16:29:16.484Z,10.90
2022-09-17T16:31:44.897Z,10.90
2022-09-17T16:34:11.925Z,10.80
2022-09-17T16:36:39.280Z,10.70
2022-09-17T16:39:06.284Z,10.60
2022-09-17T16:41:33.499Z,10.60
2022-09-17T16:44:00.483Z,10.60
2022-09-17T16:46:27.576Z,10.50
2022-09-17T16:49:20.710Z,10.40
2022-09-17T16:51:47.554Z,10.40
2022-09-17T16:54:36.837Z,10.20
2022-09-17T16:57:03.867Z,10.20
2022-09-17T16:59:30.799Z,10.20
2022-09-17T17:01:57.766Z,10.10
2022-09-17T17:04:39.470Z,10.10
2022-09-17T17:07:34.984Z,10.00
2022-09-17T17:10:06.016Z,10.00
2022-09-17T17:13:02.780Z,7.90
2022-09-17T17:15:42.017Z,9.80
2022-09-17T17:18:09.411Z,9.80
2022-09-17T17:20:36.686Z,9.80
2022-09-17T17:23:03.866Z,9.80
2022-09-17T17:25:32.170Z,9.80
2022-09-17T17:27:59.697Z,9.80
2022-09-17T17:30:26.930Z,9.70
2022-09-17T17:32:53.922Z,9.70
2022-09-17T17:35:20.909Z,9.70
2022-09-17T17:37:48.653Z,9.70
2022-09-17T17:40:15.740Z,9.70
2022-09-17T17:42:44.277Z,9.60
2022-09-17T17:45:14.613Z,9.60
2022-09-17T17:47:41.517Z,9.50
2022-09-17T17:50:10.567Z,9.50
2022-09-17T17:52:39.162Z,9.40
2022-09-17T17:55:07.220Z,9.40
2022-09-17T17:57:34.274Z,9.40
2022-09-17T18:00:01.579Z,9.30
2022-09-17T18:02:39.472Z,9.30
2022-09-17T18:05:06.691Z,9.20
2022-09-17T18:07:34.000Z,9.20
2022-09-17T18:10:00.842Z,9.20
2022-09-17T18:12:27.737Z,9.20
2022-09-17T18:14:54.617Z,9.20
2022-09-17T18:17:21.656Z,9.20
2022-09-17T18:19:48.533Z,9.20
2022-09-17T18:23:10.682Z,9.10
2022-09-17T18:25:37.570Z,9.20
2022-09-17T18:28:04.453Z,9.10
2022-09-17T18:30:32.608Z,9.10
2022-09-17T18:32:59.481Z,9.00
2022-09-17T18:35:27.414Z,8.90
2022-09-17T18:37:54.293Z,9.00
2022-09-17T18:40:22.068Z,8.90
2022-09-17T18:42:49.113Z,8.90
2022-09-17T18:45:16.699Z,8.90
2022-09-17T18:47:44.040Z,8.80
2022-09-17T18:50:12.919Z,8.80
2022-09-17T18:52:40.686Z,8.70
2022-09-17T18:55:08.512Z,8.70
2022-09-17T18:57:54.827Z,8.70
2022-09-17T19:00:22.776Z,8.60
2022-09-17T19:02:50.381Z,8.50
2022-09-17T19:05:18.508Z,8.50
2022-09-17T19:07:57.196Z,8.40
2022-09-17T19:10:25.468Z,8.40
2022-09-17T19:12:55.107Z,8.30
2022-09-17T19:15:25.361Z,8.20
2022-09-17T19:17:56.064Z,8.10
2022-09-17T19:24:19.188Z,8.10
2022-09-17T19:26:50.846Z,8.00
2022-09-17T19:29:18.181Z,8.00
2022-09-17T19:31:45.224Z,7.90
2022-09-17T19:34:27.490Z,7.80
2022-09-17T19:36:54.430Z,7.80
2022-09-17T19:39:21.368Z,7.80
2022-09-17T19:41:48.268Z,7.80
2022-09-17T19:44:34.509Z,7.70
2022-09-17T19:47:01.562Z,7.70
2022-09-17T19:49:28.623Z,7.70
2022-09-17T19:51:55.719Z,7.90
2022-09-17T19:54:22.709Z,7.60
2022-09-17T19:56:49.750Z,7.60
2022-09-17T19:59:16.866Z,7.50
2022-09-17T20:01:49.124Z,8.10
2022-09-17T20:04:16.727Z,7.50
2022-09-17T20:07:19.940Z,7.50
2022-09-17T20:09:48.296Z,7.50
2022-09-17T20:12:15.327Z,7.50
2022-09-17T20:14:42.920Z,7.50
2022-09-17T20:17:09.879Z,7.60
2022-09-17T20:19:36.772Z,8.10
2022-09-17T20:22:03.735Z,7.50
2022-09-17T20:24:30.987Z,7.50
2022-09-17T20:26:57.930Z,7.70
2022-09-17T20:29:24.997Z,7.70
2022-09-17T20:31:51.979Z,7.60
2022-09-17T20:34:19.139Z,7.60
2022-09-17T20:36:46.110Z,7.60
2022-09-17T20:39:18.225Z,7.60
2022-09-17T20:41:48.724Z,7.60
2022-09-17T20:45:20.039Z,7.60
2022-09-17T20:47:50.101Z,7.60
2022-09-17T20:50:17.464Z,7.70
2022-09-17T20:52:45.283Z,7.70
2022-09-17T20:55:12.808Z,7.70
2022-09-17T20:57:40.279Z,7.70
2022-09-17T21:00:18.762Z,7.70
2022-09-17T21:03:17.576Z,7.70
2022-09-17T21:05:44.800Z,7.70
2022-09-17T21:08:11.798Z,7.70
2022-09-17T21:10:50.653Z,7.70
2022-09-17T21:13:17.887Z,7.70
2022-09-17T21:15:56.209Z,7.70
2022-09-17T21:22:28.938Z,7.60
2022-09-17T21:24:55.896Z,7.80
2022-09-17T21:27:22.877Z,7.60
2022-09-17T21:29:49.855Z,7.60
2022-09-17T21:32:16.811Z,7.60
2022-09-17T21:34:44.280Z,7.60
2022-09-17T21:37:11.570Z,7.60
2022-09-17T21:39:39.085Z,7.70
2022-09-17T21:42:14.176Z,7.60
2022-09-17T21:44:41.329Z,7.60
2022-09-17T21:47:12.309Z,7.60
2022-09-17T21:49:40.650Z,7.50
2022-09-17T21:52:07.992Z,7.50
2022-09-17T21:54:34.952Z,7.50
2022-09-17T21:57:01.944Z,7.50
2022-09-17T21:59:28.950Z,7.50
2022-09-17T22:06:08.802Z,7.40
2022-09-17T22:08:36.395Z,7.40
2022-09-17T22:11:08.971Z,7.40
2022-09-17T22:13:36.829Z,7.40
2022-09-17T22:16:31.886Z,7.40
2022-09-17T22:18:59.796Z,7.30
2022-09-17T22:21:28.810Z,7.30
2022-09-17T22:23:58.291Z,7.80
2022-09-17T22:26:29.621Z,7.30
2022-09-17T22:29:00.637Z,7.30
2022-09-17T22:31:27.765Z,7.20
2022-09-17T22:33:54.756Z,7.30
2022-09-17T22:36:23.592Z,7.20
2022-09-17T22:38:54.016Z,7.20
2022-09-17T22:45:21.146Z,7.20
2022-09-17T22:47:48.069Z,7.70
2022-09-17T22:50:15.102Z,7.30
2022-09-17T22:52:42.066Z,7.10
2022-09-17T22:55:09.338Z,7.00
2022-09-17T22:57:36.271Z,7.10
2022-09-17T23:00:04.136Z,7.10
2022-09-17T23:02:31.112Z,7.10
2022-09-17T23:04:58.135Z,7.40
2022-09-17T23:11:39.045Z,7.10
2022-09-17T23:14:09.289Z,7.10
2022-09-17T23:16:41.226Z,9.10
2022-09-17T23:19:08.364Z,8.90
2022-09-17T23:21:35.332Z,9.80
2022-09-17T23:24:03.695Z,7.50
2022-09-17T23:26:31.000Z,8.60
2022-09-17T23:29:02.435Z,10.20
2022-09-17T23:31:32.913Z,7.50
2022-09-17T23:33:59.911Z,9.30
2022-09-17T23:36:30.808Z,9.20
2022-09-17T23:38:58.949Z,9.10
2022-09-17T23:41:28.391Z,7.80
2022-09-17T23:43:57.948Z,9.40
2022-09-17T23:46:26.439Z,9.10
2022-09-17T23:48:54.275Z,7.70
2022-09-17T23:51:22.423Z,9.10
2022-09-17T23:53:49.969Z,9.20
2022-09-17T23:56:21.325Z,9.80
2022-09-17T23:58:49.269Z,10.30
